עמוד ראשי
METAR-TAF:

METAR-TAF

שדות תעופה :

Fort McPherson, הטריטוריות הצפון-מערביות, קנדה

קו רוחב: 67-24N, קו אורך: 134-51W, גובה: 43מטר

תצפית מזג אוויר נוכחית

הדו"ח נערך לפני 38דקות, בשעה 17:00 UTC
רוח 5קשר מכיוון צפון-מערב, משתנה בין מערב/דרום-מערב ו מזרח/צפון-מזרח
טמפרטורת 17 צלסיוס
לחות 48%
לחץ 1013 hPa
ראות: 56.3קילומטר
מעט עננים בגובה 2000רגל
עננים פזורים בגובה 12000רגל

METAR: CZFM 171700Z 31005KT 250V060 35SM FEW020 SCT120 17/06 A2990 RMK CU1AC4 CU TR SLP129 DENSITY ALT 400FT

זמן: 11:38 (17:38 UTC)

תחזית

הדו"ח נערך לפני 2 שעות ו 58דקות, בשעה 14:40 UTC
תחזית בתוקף מ 17 ב 15 UTC עד 17 ב 23 UTC
רוח 5קשר מכיוון צפון/צפון-מערב
ראות: 10קילומטר
עננים פזורים בגובה 9000רגל
זמנית מ -
17 ב 15 UTC עד 17 ב 23 UTC
עננים בינוניים בגובה 9000רגל
יעשה מ
17 ב 16 UTC עד 17 ב 18 UTC
רוח 8קשר מכיוון צפון

TAF: CZFM 171440Z 1715/1723 33005KT P6SM SCT090 TEMPO 1715/1723 BKN090 BECMG 1716/1718 36008KT RMK NXT FCST BY 171900Z

תצפיות ותחזיות מזג אוויר לגבי יותר מ- 4,000 שדות תעופה ברחבי העולם. דוחות METAR ו- TAF.

התחנות הזמינות מסומנות בנקודות צהובות ואדומות על גבי המפה.

העבר את העכבר לנקודה הצבעונית על מנת לראות את שם התחנה.

לאחר מכן, לחץ כדי לראות את תוכן ואת תחזיות מזג האוויר.

כדי לשנות את המפה: לחץ על הכפתורים הירוקים עם הפלוס השחור כדי להתקרב; על הכפתור הירוק עם המקף כדי להתרחק; או בחיצים הירוקים למפות סמוכות.


METAR-TAF: